createdAt,value
2019-04-24T00:01:20.733Z,15.50
2019-04-24T00:06:38.526Z,17.23
2019-04-24T00:14:10.456Z,14.33
2019-04-24T00:16:32.772Z,17.17
2019-04-24T00:21:21.831Z,15.10
2019-04-24T00:26:19.618Z,13.93
2019-04-24T00:28:53.145Z,13.13
2019-04-24T00:33:54.828Z,13.63
2019-04-24T00:39:00.476Z,14.53
2019-04-24T00:41:21.850Z,13.33
2019-04-24T00:56:17.425Z,15.13
2019-04-24T00:58:37.346Z,17.03
2019-04-24T01:01:38.085Z,13.47
2019-04-24T01:04:26.668Z,16.20
2019-04-24T01:07:03.808Z,17.10
2019-04-24T01:09:22.291Z,15.37
2019-04-24T01:11:45.459Z,14.23
2019-04-24T01:16:45.043Z,16.63
2019-04-24T01:19:10.218Z,17.27
2019-04-24T01:21:49.810Z,18.00
2019-04-24T01:26:51.341Z,15.37
2019-04-24T01:31:46.597Z,17.10
2019-04-24T01:34:28.597Z,16.23
2019-04-24T01:36:57.775Z,16.10
2019-04-24T01:39:43.848Z,17.93
2019-04-24T01:47:16.694Z,18.97
2019-04-24T01:54:35.846Z,15.57
2019-04-24T01:57:05.092Z,16.63
2019-04-24T01:59:40.565Z,14.90
2019-04-24T02:02:00.879Z,17.87
2019-04-24T02:04:35.579Z,18.67
2019-04-24T02:07:19.840Z,23.03
2019-04-24T02:10:27.076Z,62.23
2019-04-24T02:12:39.481Z,24.93
2019-04-24T02:14:59.430Z,19.23
2019-04-24T02:17:33.094Z,18.27
2019-04-24T02:20:09.230Z,17.63
2019-04-24T02:22:24.339Z,15.23
2019-04-24T02:27:23.337Z,15.30
2019-04-24T02:30:11.411Z,15.60
2019-04-24T02:40:14.770Z,16.50
2019-04-24T02:48:03.530Z,14.77
2019-04-24T02:50:42.587Z,17.37
2019-04-24T02:55:13.627Z,14.97
2019-04-24T03:00:24.040Z,19.33
2019-04-24T03:05:15.860Z,17.20
2019-04-24T03:18:01.156Z,19.37
2019-04-24T03:20:30.084Z,14.10
2019-04-24T03:22:56.906Z,13.23
2019-04-24T03:25:49.828Z,15.87
2019-04-24T03:27:54.362Z,16.13
2019-04-24T03:30:43.388Z,14.63
2019-04-24T03:33:15.555Z,16.03
2019-04-24T03:40:50.503Z,16.23
2019-04-24T03:51:24.162Z,21.13
2019-04-24T03:53:13.317Z,17.20
2019-04-24T03:58:29.393Z,17.83
2019-04-24T04:08:37.359Z,17.47
2019-04-24T04:10:39.203Z,15.27
2019-04-24T04:13:20.196Z,17.57
2019-04-24T04:20:50.116Z,13.77
2019-04-24T04:26:21.322Z,18.97
2019-04-24T04:28:33.685Z,21.03
2019-04-24T04:41:37.222Z,16.27
2019-04-24T04:44:19.056Z,19.17
2019-04-24T04:46:57.875Z,16.20
2019-04-24T04:49:38.647Z,16.63
2019-04-24T04:54:41.844Z,16.80
2019-04-24T04:56:46.010Z,20.03
2019-04-24T05:03:00.330Z,15.30
2019-04-24T05:04:42.491Z,22.30
2019-04-24T05:12:12.341Z,38.47
2019-04-24T05:14:43.629Z,23.50
2019-04-24T05:16:57.905Z,19.17
2019-04-24T05:24:21.428Z,17.93
2019-04-24T05:32:08.851Z,14.87
2019-04-24T05:34:58.216Z,15.27
2019-04-24T05:37:25.449Z,15.10
2019-04-24T05:39:59.086Z,14.50
2019-04-24T05:42:39.368Z,13.87
2019-04-24T05:44:46.523Z,15.23
2019-04-24T05:47:31.072Z,14.63
2019-04-24T05:50:00.803Z,15.00
2019-04-24T05:52:32.396Z,17.07
2019-04-24T05:54:42.938Z,15.60
2019-04-24T05:57:49.187Z,15.17
2019-04-24T05:59:57.632Z,14.13
2019-04-24T06:04:57.919Z,21.83
2019-04-24T06:07:17.077Z,37.67
2019-04-24T06:09:55.814Z,29.80
2019-04-24T06:12:27.269Z,27.07
2019-04-24T06:14:56.119Z,27.13
2019-04-24T06:17:45.976Z,23.23
2019-04-24T06:20:32.745Z,26.23
2019-04-24T06:22:56.859Z,24.70
2019-04-24T06:25:06.395Z,34.47
2019-04-24T06:30:27.602Z,47.07
2019-04-24T06:38:02.937Z,51.03
2019-04-24T06:41:06.597Z,53.23
2019-04-24T06:43:10.685Z,35.63
2019-04-24T06:45:40.574Z,34.00
2019-04-24T06:48:07.281Z,43.60
2019-04-24T06:55:45.331Z,27.17
2019-04-24T06:58:06.656Z,34.07
2019-04-24T07:00:52.580Z,17.50
2019-04-24T07:03:56.158Z,24.43
2019-04-24T07:09:09.563Z,21.97
2019-04-24T07:11:05.731Z,17.83
2019-04-24T07:13:54.184Z,15.27
2019-04-24T07:16:10.122Z,12.70
2019-04-24T07:18:32.902Z,11.70
2019-04-24T07:23:57.911Z,15.93
2019-04-24T07:28:40.461Z,13.40
2019-04-24T07:31:13.722Z,16.33
2019-04-24T07:36:21.739Z,12.00
2019-04-24T07:38:40.392Z,15.67
2019-04-24T07:41:51.572Z,11.97
2019-04-24T07:49:12.261Z,8.40
2019-04-24T07:52:00.700Z,9.43
2019-04-24T07:59:42.866Z,11.97
2019-04-24T08:02:02.825Z,13.93
2019-04-24T08:10:06.063Z,9.67
2019-04-24T08:12:07.511Z,13.53
2019-04-24T08:14:56.091Z,10.90
2019-04-24T08:17:10.641Z,12.90
2019-04-24T08:22:05.602Z,10.50
2019-04-24T08:24:44.750Z,15.80
2019-04-24T08:27:09.983Z,13.47
2019-04-24T08:29:31.843Z,20.40
2019-04-24T08:39:42.359Z,9.47
2019-04-24T08:42:29.056Z,15.47
2019-04-24T08:45:08.248Z,28.13
2019-04-24T08:49:57.232Z,16.07
2019-04-24T08:55:03.215Z,9.77
2019-04-24T08:57:53.861Z,11.67
2019-04-24T09:05:07.928Z,11.40
2019-04-24T09:10:58.371Z,11.43
2019-04-24T09:13:16.798Z,14.83
2019-04-24T09:20:43.956Z,10.93
2019-04-24T09:23:18.975Z,11.30
2019-04-24T09:25:57.575Z,8.70
2019-04-24T09:30:48.480Z,17.17
2019-04-24T09:38:37.437Z,12.50
2019-04-24T09:41:16.434Z,15.07
2019-04-24T09:43:40.680Z,14.03
2019-04-24T09:46:07.929Z,13.97
2019-04-24T09:53:47.003Z,12.70
2019-04-24T09:55:54.460Z,10.23
2019-04-24T10:03:36.111Z,13.87
2019-04-24T10:06:07.240Z,12.73
2019-04-24T10:08:39.745Z,19.07
2019-04-24T10:11:06.058Z,12.60
2019-04-24T10:14:05.711Z,8.87
2019-04-24T10:16:46.100Z,12.13
2019-04-24T10:21:42.587Z,15.60
2019-04-24T10:24:05.287Z,15.13
2019-04-24T10:26:47.021Z,12.87
2019-04-24T10:32:17.258Z,9.87
2019-04-24T10:34:24.995Z,15.37
2019-04-24T10:37:29.842Z,13.67
2019-04-24T10:40:11.075Z,16.23
2019-04-24T10:42:12.144Z,12.67
2019-04-24T10:44:46.003Z,11.00
2019-04-24T10:57:11.170Z,16.20
2019-04-24T11:05:03.902Z,12.87
2019-04-24T11:07:35.805Z,13.43
2019-04-24T11:10:23.536Z,11.07
2019-04-24T11:13:03.336Z,17.37
2019-04-24T11:18:24.638Z,12.73
2019-04-24T11:21:32.868Z,13.63
2019-04-24T11:26:13.522Z,11.53
2019-04-24T11:31:11.781Z,16.33
2019-04-24T11:36:16.002Z,21.10
2019-04-24T11:38:52.193Z,41.87
2019-04-24T11:41:14.091Z,15.87
2019-04-24T11:43:53.183Z,26.57
2019-04-24T11:46:43.847Z,29.93
2019-04-24T11:53:49.037Z,13.40
2019-04-24T11:56:31.141Z,15.20
2019-04-24T12:02:01.837Z,10.90
2019-04-24T12:04:24.065Z,10.20
2019-04-24T12:09:03.057Z,14.77
2019-04-24T12:14:07.835Z,13.63
2019-04-24T12:16:48.630Z,12.33
2019-04-24T12:19:33.589Z,10.17
2019-04-24T12:22:10.060Z,9.43
2019-04-24T12:26:51.356Z,10.40
2019-04-24T12:32:06.950Z,11.20
2019-04-24T12:34:44.134Z,11.70
2019-04-24T12:39:43.736Z,11.83
2019-04-24T12:42:14.792Z,5.87
2019-04-24T12:44:32.038Z,15.87
2019-04-24T12:47:15.257Z,15.73
2019-04-24T12:52:03.814Z,16.33
2019-04-24T12:54:38.183Z,9.57
2019-04-24T12:59:46.050Z,7.10
2019-04-24T13:02:37.546Z,11.40
2019-04-24T13:05:08.343Z,18.23
2019-04-24T13:07:54.451Z,12.43
2019-04-24T13:10:15.683Z,9.67
2019-04-24T13:12:59.937Z,10.17
2019-04-24T13:15:24.770Z,8.03
2019-04-24T13:18:00.207Z,5.90
2019-04-24T13:19:52.711Z,7.57
2019-04-24T13:22:33.239Z,6.70
2019-04-24T13:25:13.938Z,7.83
2019-04-24T13:28:12.965Z,6.20
2019-04-24T13:30:26.827Z,8.50
2019-04-24T13:33:05.217Z,4.67
2019-04-24T13:35:25.132Z,9.90
2019-04-24T13:40:22.416Z,6.87
2019-04-24T13:42:59.315Z,11.00
2019-04-24T13:48:09.533Z,7.67
2019-04-24T13:50:24.837Z,9.57
2019-04-24T13:57:59.181Z,4.60
2019-04-24T14:00:33.437Z,8.10
2019-04-24T14:03:20.201Z,9.83
2019-04-24T14:05:16.862Z,9.43
2019-04-24T14:08:01.201Z,13.57
2019-04-24T14:10:38.639Z,13.47
2019-04-24T14:17:44.433Z,6.70
2019-04-24T14:20:23.393Z,11.03
2019-04-24T14:22:58.179Z,8.87
2019-04-24T14:25:25.313Z,8.57
2019-04-24T14:27:52.312Z,9.90
2019-04-24T14:30:15.569Z,10.03
2019-04-24T14:32:47.326Z,7.63
2019-04-24T14:35:20.025Z,5.03
2019-04-24T14:37:45.514Z,6.73
2019-04-24T14:42:36.366Z,10.57
2019-04-24T14:47:43.161Z,11.90
2019-04-24T14:52:37.743Z,6.67
2019-04-24T14:55:18.651Z,5.67
2019-04-24T14:57:38.725Z,7.67
2019-04-24T15:00:18.412Z,8.57
2019-04-24T15:07:42.152Z,8.70
2019-04-24T15:10:09.070Z,6.93
2019-04-24T15:12:37.772Z,11.33
2019-04-24T15:15:12.168Z,10.40
2019-04-24T15:17:43.350Z,10.07
2019-04-24T15:20:09.397Z,12.17
2019-04-24T15:27:28.775Z,10.23
2019-04-24T15:29:55.333Z,5.03
2019-04-24T15:32:28.017Z,9.40
2019-04-24T15:34:59.039Z,7.43
2019-04-24T15:37:26.321Z,12.97
2019-04-24T15:40:21.564Z,8.97
2019-04-24T15:42:16.102Z,9.00
2019-04-24T15:45:01.008Z,13.63
2019-04-24T15:47:35.473Z,8.57
2019-04-24T15:49:56.499Z,9.00
2019-04-24T15:51:44.162Z,11.03
2019-04-24T15:54:11.427Z,8.83
2019-04-24T15:56:38.195Z,8.63
2019-04-24T15:59:19.873Z,9.07
2019-04-24T16:02:04.445Z,8.40
2019-04-24T16:04:40.375Z,15.33
2019-04-24T16:06:38.160Z,9.73
2019-04-24T16:09:08.441Z,6.63
2019-04-24T16:11:34.926Z,5.63
2019-04-24T16:14:16.974Z,10.43
2019-04-24T16:17:04.638Z,10.93
2019-04-24T16:19:35.074Z,7.50
2019-04-24T16:21:51.521Z,13.13
2019-04-24T16:32:21.885Z,7.90
2019-04-24T16:34:16.146Z,17.13
2019-04-24T16:39:09.471Z,10.20
2019-04-24T16:44:30.846Z,11.87
2019-04-24T16:46:49.909Z,7.30
2019-04-24T16:49:24.241Z,17.93
2019-04-24T16:51:46.726Z,12.63
2019-04-24T16:56:39.273Z,24.10
2019-04-24T16:59:09.801Z,22.20
2019-04-24T17:04:19.611Z,17.63
2019-04-24T17:09:06.972Z,17.40
2019-04-24T17:14:10.499Z,14.00
2019-04-24T17:17:07.147Z,10.77
2019-04-24T17:19:42.233Z,12.37
2019-04-24T17:21:56.807Z,11.83
2019-04-24T17:24:26.131Z,9.43
2019-04-24T17:26:58.774Z,11.90
2019-04-24T17:31:50.790Z,15.90
2019-04-24T17:36:30.316Z,6.57
2019-04-24T17:38:53.048Z,11.43
2019-04-24T17:41:27.728Z,9.53
2019-04-24T17:44:21.917Z,10.77
2019-04-24T17:46:51.993Z,8.90
2019-04-24T17:49:24.079Z,11.80
2019-04-24T17:52:11.627Z,12.73
2019-04-24T17:54:14.873Z,12.20
2019-04-24T17:58:41.458Z,15.97
2019-04-24T18:01:13.450Z,12.87
2019-04-24T18:03:40.300Z,13.30
2019-04-24T18:06:08.014Z,10.70
2019-04-24T18:08:35.245Z,10.13
2019-04-24T18:11:03.240Z,13.90
2019-04-24T18:13:30.116Z,11.77
2019-04-24T18:15:56.867Z,16.20
2019-04-24T18:18:23.649Z,8.83
2019-04-24T18:20:51.640Z,11.83
2019-04-24T18:23:18.952Z,7.07
2019-04-24T18:25:47.578Z,12.40
2019-04-24T18:28:14.866Z,7.43
2019-04-24T18:30:42.555Z,7.90
2019-04-24T18:33:09.560Z,7.27
2019-04-24T18:35:39.018Z,8.60
2019-04-24T18:38:08.377Z,7.03
2019-04-24T18:40:35.625Z,4.97
2019-04-24T18:43:04.629Z,6.97
2019-04-24T18:45:32.072Z,7.63
2019-04-24T18:47:59.070Z,3.53
2019-04-24T18:50:25.947Z,5.93
2019-04-24T18:52:52.822Z,6.87
2019-04-24T18:55:19.703Z,2.50
2019-04-24T18:57:46.729Z,4.70
2019-04-24T19:00:14.266Z,3.27
2019-04-24T19:02:41.805Z,3.70
2019-04-24T19:05:08.989Z,2.00
2019-04-24T19:07:35.672Z,3.70
2019-04-24T19:10:07.158Z,3.67
2019-04-24T19:12:34.275Z,1.43
2019-04-24T19:15:02.603Z,3.63
2019-04-24T19:17:31.485Z,2.47
2019-04-24T19:19:58.310Z,3.80
2019-04-24T19:22:25.343Z,3.23
2019-04-24T19:24:52.209Z,2.70
2019-04-24T19:27:19.049Z,1.40
2019-04-24T19:29:46.321Z,1.40
2019-04-24T19:32:13.514Z,1.37
2019-04-24T19:34:41.919Z,1.33
2019-04-24T19:37:09.621Z,2.23
2019-04-24T19:39:36.575Z,0.83
2019-04-24T19:42:03.704Z,1.13
2019-04-24T19:44:31.454Z,4.83
2019-04-24T19:46:58.463Z,2.47
2019-04-24T19:49:26.208Z,1.47
2019-04-24T19:51:53.337Z,3.33
2019-04-24T19:54:21.689Z,2.43
2019-04-24T19:56:48.882Z,2.80
2019-04-24T19:59:15.766Z,2.47
2019-04-24T20:01:42.584Z,2.17
2019-04-24T20:04:12.307Z,1.03
2019-04-24T20:06:38.610Z,2.10
2019-04-24T20:09:08.032Z,1.73
2019-04-24T20:11:41.187Z,3.03
2019-04-24T20:14:07.918Z,1.47
2019-04-24T20:16:34.965Z,0.80
2019-04-24T20:19:03.251Z,3.90
2019-04-24T20:21:31.262Z,3.30
2019-04-24T20:23:58.299Z,2.40
2019-04-24T20:26:25.131Z,1.50
2019-04-24T20:28:51.983Z,2.57
2019-04-24T20:31:18.779Z,1.53
2019-04-24T20:33:45.605Z,2.43
2019-04-24T20:36:12.451Z,2.70
2019-04-24T20:38:39.270Z,1.90
2019-04-24T20:41:05.991Z,2.70
2019-04-24T20:43:32.891Z,1.10
2019-04-24T20:45:59.577Z,1.30
2019-04-24T20:48:26.387Z,2.57
2019-04-24T20:50:52.962Z,1.77
2019-04-24T20:53:23.057Z,1.50
2019-04-24T20:55:51.329Z,0.90
2019-04-24T20:58:20.269Z,2.03
2019-04-24T21:00:46.963Z,1.73
2019-04-24T21:03:13.671Z,1.30
2019-04-24T21:05:41.957Z,2.93
2019-04-24T21:08:10.451Z,2.07
2019-04-24T21:10:38.761Z,1.60
2019-04-24T21:13:07.283Z,2.90
2019-04-24T21:15:34.021Z,2.10
2019-04-24T21:18:00.807Z,2.43
2019-04-24T21:20:28.122Z,2.23
2019-04-24T21:22:54.924Z,1.43
2019-04-24T21:25:23.099Z,2.00
2019-04-24T21:27:51.513Z,6.30
2019-04-24T21:30:19.618Z,1.13
2019-04-24T21:32:47.035Z,1.23
2019-04-24T21:35:13.731Z,1.00
2019-04-24T21:37:40.294Z,1.63
2019-04-24T21:40:07.468Z,0.90
2019-04-24T21:42:34.282Z,0.93
2019-04-24T21:45:01.364Z,3.97
2019-04-24T21:47:28.070Z,2.23
2019-04-24T21:49:54.694Z,1.27
2019-04-24T21:52:23.016Z,1.90
2019-04-24T21:54:51.271Z,2.43
2019-04-24T21:57:17.980Z,2.20
2019-04-24T21:59:44.677Z,1.40
2019-04-24T22:02:27.554Z,1.10
2019-04-24T22:05:04.982Z,1.93
2019-04-24T22:07:36.714Z,2.00
2019-04-24T22:10:04.325Z,0.70
2019-04-24T22:12:32.870Z,1.77
2019-04-24T22:15:01.956Z,3.83
2019-04-24T22:17:29.094Z,1.17
2019-04-24T22:19:55.832Z,1.73
2019-04-24T22:22:24.185Z,0.60
2019-04-24T22:24:52.532Z,1.40
2019-04-24T22:27:39.233Z,1.13
2019-04-24T22:30:12.717Z,1.87
2019-04-24T22:32:39.603Z,1.30
2019-04-24T22:35:08.677Z,1.50
2019-04-24T22:37:35.367Z,1.33
2019-04-24T22:40:05.881Z,1.20
2019-04-24T22:42:32.276Z,1.83
2019-04-24T22:44:58.941Z,1.00
2019-04-24T22:47:25.468Z,0.87
2019-04-24T22:49:52.316Z,1.07
2019-04-24T22:52:19.179Z,0.93
2019-04-24T22:54:45.741Z,2.40
2019-04-24T22:57:12.241Z,1.63
2019-04-24T22:59:38.709Z,1.30
2019-04-24T23:02:05.521Z,0.90
2019-04-24T23:04:33.425Z,1.93
2019-04-24T23:07:01.345Z,0.97
2019-04-24T23:09:34.622Z,1.03
2019-04-24T23:12:01.682Z,4.70
2019-04-24T23:14:30.484Z,1.37
2019-04-24T23:16:58.137Z,1.43
2019-04-24T23:19:25.890Z,1.00
2019-04-24T23:22:12.136Z,1.00
2019-04-24T23:24:48.514Z,0.93
2019-04-24T23:27:13.648Z,3.00
2019-04-24T23:29:44.661Z,0.80
2019-04-24T23:32:13.112Z,1.73
2019-04-24T23:34:42.496Z,0.87
2019-04-24T23:37:09.306Z,1.53
2019-04-24T23:39:35.853Z,1.00
2019-04-24T23:42:02.595Z,0.90
2019-04-24T23:44:29.117Z,1.27
2019-04-24T23:46:55.664Z,1.93
2019-04-24T23:49:22.096Z,0.90
2019-04-24T23:51:48.798Z,1.00
2019-04-24T23:54:15.244Z,0.90
2019-04-24T23:56:42.991Z,1.17
2019-04-24T23:59:09.950Z,1.00
